createdAt,value
2022-09-15T00:00:51.263Z,100.00
2022-09-15T00:03:20.365Z,100.00
2022-09-15T00:05:48.635Z,100.00
2022-09-15T00:08:17.591Z,100.00
2022-09-15T00:10:49.171Z,100.00
2022-09-15T00:13:17.368Z,100.00
2022-09-15T00:15:45.125Z,100.00
2022-09-15T00:18:13.013Z,100.00
2022-09-15T00:20:42.694Z,100.00
2022-09-15T00:23:11.049Z,100.00
2022-09-15T00:25:45.594Z,100.00
2022-09-15T00:28:13.913Z,100.00
2022-09-15T00:30:43.159Z,100.00
2022-09-15T00:33:11.005Z,100.00
2022-09-15T00:35:39.884Z,100.00
2022-09-15T00:38:08.719Z,100.00
2022-09-15T00:40:46.427Z,100.00
2022-09-15T00:43:15.543Z,100.00
2022-09-15T00:45:43.278Z,100.00
2022-09-15T00:48:14.519Z,100.00
2022-09-15T00:50:45.870Z,100.00
2022-09-15T00:53:15.164Z,100.00
2022-09-15T00:55:47.442Z,100.00
2022-09-15T00:58:31.123Z,100.00
2022-09-15T01:01:01.387Z,100.00
2022-09-15T01:03:31.483Z,100.00
2022-09-15T01:06:03.105Z,100.00
2022-09-15T01:08:35.214Z,100.00
2022-09-15T01:11:03.022Z,100.00
2022-09-15T01:13:31.990Z,100.00
2022-09-15T01:16:11.032Z,100.00
2022-09-15T01:18:48.002Z,100.00
2022-09-15T01:21:29.835Z,100.00
2022-09-15T01:24:41.202Z,100.00
2022-09-15T01:27:42.874Z,100.00
2022-09-15T01:30:15.439Z,100.00
2022-09-15T01:33:06.175Z,100.00
2022-09-15T01:35:53.738Z,100.00
2022-09-15T01:38:33.396Z,100.00
2022-09-15T01:41:06.133Z,100.00
2022-09-15T01:43:40.267Z,100.00
2022-09-15T01:46:10.855Z,100.00
2022-09-15T01:48:40.606Z,100.00
2022-09-15T01:51:09.334Z,100.00
2022-09-15T01:53:37.158Z,100.00
2022-09-15T01:56:08.203Z,100.00
2022-09-15T01:58:37.671Z,100.00
2022-09-15T02:01:08.502Z,100.00
2022-09-15T02:03:47.325Z,100.00
2022-09-15T02:06:22.106Z,100.00
2022-09-15T02:08:57.361Z,100.00
2022-09-15T02:11:28.184Z,100.00
2022-09-15T02:14:03.576Z,100.00
2022-09-15T02:16:34.945Z,100.00
2022-09-15T02:19:21.522Z,100.00
2022-09-15T02:21:55.895Z,100.00
2022-09-15T02:24:27.912Z,100.00
2022-09-15T02:26:56.203Z,100.00
2022-09-15T02:29:27.823Z,100.00
2022-09-15T02:32:03.744Z,100.00
2022-09-15T02:34:38.308Z,100.00
2022-09-15T02:37:06.764Z,100.00
2022-09-15T02:39:37.872Z,100.00
2022-09-15T02:42:05.883Z,100.00
2022-09-15T02:44:33.653Z,100.00
2022-09-15T02:47:02.616Z,100.00
2022-09-15T02:49:30.191Z,100.00
2022-09-15T02:51:59.170Z,100.00
2022-09-15T02:54:26.784Z,100.00
2022-09-15T02:56:54.373Z,100.00
2022-09-15T02:59:22.270Z,100.00
2022-09-15T03:01:49.974Z,100.00
2022-09-15T03:04:17.586Z,100.00
2022-09-15T03:06:45.335Z,100.00
2022-09-15T03:09:14.886Z,100.00
2022-09-15T03:11:42.536Z,100.00
2022-09-15T03:14:10.495Z,100.00
2022-09-15T03:16:38.196Z,100.00
2022-09-15T03:19:06.238Z,100.00
2022-09-15T03:21:33.873Z,100.00
2022-09-15T03:24:01.581Z,100.00
2022-09-15T03:26:31.050Z,100.00
2022-09-15T03:28:58.718Z,100.00
2022-09-15T03:31:26.349Z,100.00
2022-09-15T03:33:56.048Z,100.00
2022-09-15T03:36:23.779Z,100.00
2022-09-15T03:38:51.481Z,100.00
2022-09-15T03:41:19.225Z,100.00
2022-09-15T03:43:48.155Z,100.00
2022-09-15T03:46:15.841Z,100.00
2022-09-15T03:48:43.430Z,100.00
2022-09-15T03:51:12.500Z,100.00
2022-09-15T03:53:41.976Z,100.00
2022-09-15T03:56:11.751Z,100.00
2022-09-15T03:58:39.354Z,100.00
2022-09-15T04:01:09.177Z,100.00
2022-09-15T04:03:43.217Z,100.00
2022-09-15T04:06:13.148Z,100.00
2022-09-15T04:08:40.871Z,100.00
2022-09-15T04:11:10.747Z,100.00
2022-09-15T04:13:39.858Z,100.00
2022-09-15T04:16:11.238Z,100.00
2022-09-15T04:18:39.105Z,100.00
2022-09-15T04:21:09.694Z,100.00
2022-09-15T04:23:37.253Z,100.00
2022-09-15T04:26:07.663Z,100.00
2022-09-15T04:28:38.043Z,100.00
2022-09-15T04:31:08.673Z,100.00
2022-09-15T04:33:37.031Z,100.00
2022-09-15T04:36:08.015Z,100.00
2022-09-15T04:38:36.371Z,100.00
2022-09-15T04:41:05.123Z,100.00
2022-09-15T04:43:33.230Z,100.00
2022-09-15T04:46:00.860Z,100.00
2022-09-15T04:48:29.890Z,100.00
2022-09-15T04:51:01.998Z,100.00
2022-09-15T04:53:29.933Z,100.00
2022-09-15T04:56:04.073Z,100.00
2022-09-15T04:58:31.776Z,100.00
2022-09-15T05:00:59.366Z,100.00
2022-09-15T05:03:26.998Z,100.00
2022-09-15T05:05:55.880Z,100.00
2022-09-15T05:08:23.548Z,100.00
2022-09-15T05:10:51.177Z,100.00
2022-09-15T05:13:18.877Z,100.00
2022-09-15T05:15:46.778Z,100.00
2022-09-15T05:18:14.393Z,100.00
2022-09-15T05:20:42.113Z,100.00
2022-09-15T05:23:11.665Z,100.00
2022-09-15T05:25:39.245Z,100.00
2022-09-15T05:28:07.683Z,100.00
2022-09-15T05:30:39.684Z,100.00
2022-09-15T05:33:09.078Z,100.00
2022-09-15T05:35:36.719Z,100.00
2022-09-15T05:38:04.357Z,100.00
2022-09-15T05:40:33.908Z,100.00
2022-09-15T05:43:01.933Z,100.00
2022-09-15T05:45:29.473Z,100.00
2022-09-15T05:47:57.101Z,100.00
2022-09-15T05:50:24.918Z,100.00
2022-09-15T05:52:52.903Z,100.00
2022-09-15T05:55:20.529Z,100.00
2022-09-15T05:57:49.557Z,100.00
2022-09-15T06:00:18.969Z,100.00
2022-09-15T06:02:46.954Z,100.00
2022-09-15T06:05:14.665Z,100.00
2022-09-15T06:07:42.165Z,100.00
2022-09-15T06:10:10.987Z,100.00
2022-09-15T06:12:38.816Z,100.00
2022-09-15T06:15:08.844Z,100.00
2022-09-15T06:17:36.374Z,100.00
2022-09-15T06:20:06.741Z,100.00
2022-09-15T06:22:35.059Z,100.00
2022-09-15T06:25:02.764Z,100.00
2022-09-15T06:27:30.276Z,100.00
2022-09-15T06:29:57.912Z,100.00
2022-09-15T06:32:27.102Z,100.00
2022-09-15T06:34:54.779Z,100.00
2022-09-15T06:37:22.295Z,100.00
2022-09-15T06:39:49.995Z,100.00
2022-09-15T06:42:17.862Z,100.00
2022-09-15T06:44:45.480Z,100.00
2022-09-15T06:47:16.004Z,100.00
2022-09-15T06:49:44.966Z,100.00
2022-09-15T06:52:12.768Z,100.00
2022-09-15T06:54:40.370Z,100.00
2022-09-15T06:57:08.067Z,100.00
2022-09-15T06:59:35.749Z,100.00
2022-09-15T07:02:05.287Z,100.00
2022-09-15T07:04:36.842Z,100.00
2022-09-15T07:07:06.474Z,100.00
2022-09-15T07:09:34.080Z,100.00
2022-09-15T07:12:02.026Z,100.00
2022-09-15T07:14:30.217Z,100.00
2022-09-15T07:16:57.889Z,100.00
2022-09-15T07:19:25.432Z,100.00
2022-09-15T07:21:53.853Z,100.00
2022-09-15T07:24:22.876Z,100.00
2022-09-15T07:26:50.558Z,100.00
2022-09-15T07:29:18.439Z,100.00
2022-09-15T07:31:46.100Z,100.00
2022-09-15T07:34:13.776Z,100.00
2022-09-15T07:36:41.326Z,100.00
2022-09-15T07:39:08.867Z,100.00
2022-09-15T07:41:37.829Z,100.00
2022-09-15T07:44:08.035Z,100.00
2022-09-15T07:46:35.577Z,100.00
2022-09-15T07:49:03.843Z,100.00
2022-09-15T07:51:31.554Z,100.00
2022-09-15T07:53:59.118Z,100.00
2022-09-15T07:56:26.793Z,100.00
2022-09-15T07:58:55.798Z,100.00
2022-09-15T08:01:23.479Z,100.00
2022-09-15T08:03:54.584Z,100.00
2022-09-15T08:06:24.397Z,100.00
2022-09-15T08:08:57.713Z,100.00
2022-09-15T08:11:27.523Z,100.00
2022-09-15T08:13:56.515Z,100.00
2022-09-15T08:16:25.457Z,100.00
2022-09-15T08:18:55.941Z,100.00
2022-09-15T08:21:23.835Z,100.00
2022-09-15T08:23:52.489Z,100.00
2022-09-15T08:26:20.311Z,100.00
2022-09-15T08:28:48.226Z,99.28
2022-09-15T08:31:18.019Z,99.62
2022-09-15T08:33:48.935Z,99.39
2022-09-15T08:36:16.550Z,98.72
2022-09-15T08:38:45.975Z,98.64
2022-09-15T08:41:18.285Z,97.85
2022-09-15T08:43:50.819Z,97.11
2022-09-15T08:46:25.300Z,96.51
2022-09-15T08:49:02.905Z,95.73
2022-09-15T08:51:36.956Z,95.41
2022-09-15T08:54:12.049Z,95.31
2022-09-15T08:56:42.477Z,94.49
2022-09-15T08:59:14.165Z,93.82
2022-09-15T09:02:06.947Z,91.75
2022-09-15T09:05:03.729Z,91.83
2022-09-15T09:07:49.197Z,91.57
2022-09-15T09:10:20.972Z,90.39
2022-09-15T09:13:04.505Z,89.77
2022-09-15T09:15:48.556Z,88.99
2022-09-15T09:18:49.344Z,87.94
2022-09-15T09:21:24.512Z,87.92
2022-09-15T09:23:59.562Z,88.11
2022-09-15T09:26:30.769Z,87.35
2022-09-15T09:29:00.870Z,87.13
2022-09-15T09:31:29.623Z,86.64
2022-09-15T09:34:07.903Z,86.48
2022-09-15T09:36:35.476Z,86.69
2022-09-15T09:39:03.766Z,85.05
2022-09-15T09:41:36.518Z,84.83
2022-09-15T09:44:07.649Z,85.10
2022-09-15T09:46:35.257Z,85.49
2022-09-15T09:49:12.096Z,85.14
2022-09-15T09:51:50.937Z,85.24
2022-09-15T09:54:20.678Z,85.76
2022-09-15T09:56:49.616Z,84.62
2022-09-15T09:59:41.573Z,85.55
2022-09-15T10:02:17.943Z,84.97
2022-09-15T10:04:49.111Z,85.58
2022-09-15T10:07:20.071Z,84.86
2022-09-15T10:09:54.188Z,84.59
2022-09-15T10:12:26.147Z,84.68
2022-09-15T10:14:56.691Z,81.94
2022-09-15T10:17:27.122Z,80.96
2022-09-15T10:19:58.177Z,78.96
2022-09-15T10:22:31.159Z,79.70
2022-09-15T10:25:00.705Z,79.23
2022-09-15T10:27:32.001Z,78.17
2022-09-15T10:30:18.424Z,75.35
2022-09-15T10:32:46.071Z,76.76
2022-09-15T10:35:18.599Z,77.23
2022-09-15T10:38:04.356Z,76.62
2022-09-15T10:40:43.994Z,76.91
2022-09-15T10:43:25.246Z,76.74
2022-09-15T10:46:02.720Z,76.29
2022-09-15T10:48:44.233Z,78.21
2022-09-15T10:51:37.981Z,79.21
2022-09-15T10:54:19.427Z,79.67
2022-09-15T10:56:50.006Z,80.74
2022-09-15T10:59:43.150Z,79.82
2022-09-15T11:02:56.451Z,78.60
2022-09-15T11:05:33.183Z,78.72
2022-09-15T11:08:22.837Z,78.69
2022-09-15T11:10:59.666Z,79.26
2022-09-15T11:13:39.595Z,79.36
2022-09-15T11:16:14.541Z,79.47
2022-09-15T11:18:59.965Z,80.01
2022-09-15T11:21:33.634Z,80.39
2022-09-15T11:24:24.067Z,82.25
2022-09-15T11:26:55.544Z,84.73
2022-09-15T11:29:27.998Z,88.50
2022-09-15T11:34:34.731Z,93.03
2022-09-15T11:37:09.147Z,95.08
2022-09-15T11:39:42.617Z,94.61
2022-09-15T11:42:16.143Z,95.63
2022-09-15T11:44:47.096Z,94.87
2022-09-15T11:47:23.331Z,92.88
2022-09-15T11:49:57.099Z,92.24
2022-09-15T11:52:44.043Z,91.34
2022-09-15T11:55:23.996Z,89.86
2022-09-15T11:57:58.015Z,91.09
2022-09-15T12:00:26.062Z,89.59
2022-09-15T12:03:01.247Z,87.04
2022-09-15T12:05:34.311Z,84.91
2022-09-15T12:08:07.753Z,85.09
2022-09-15T12:10:41.349Z,80.65
2022-09-15T12:13:16.312Z,78.13
2022-09-15T12:15:45.240Z,75.59
2022-09-15T12:18:37.790Z,74.92
2022-09-15T12:21:15.769Z,75.20
2022-09-15T12:23:48.719Z,74.63
2022-09-15T12:26:20.174Z,74.94
2022-09-15T12:29:02.003Z,75.39
2022-09-15T12:31:40.068Z,75.94
2022-09-15T12:34:36.407Z,77.67
2022-09-15T12:37:14.614Z,77.75
2022-09-15T12:39:43.187Z,77.03
2022-09-15T12:42:20.351Z,77.37
2022-09-15T12:44:52.910Z,78.42
2022-09-15T12:47:29.406Z,80.04
2022-09-15T12:50:03.247Z,79.47
2022-09-15T12:52:31.217Z,80.84
2022-09-15T12:55:03.467Z,81.51
2022-09-15T12:57:36.085Z,80.58
2022-09-15T13:00:33.561Z,80.60
2022-09-15T13:03:04.869Z,81.35
2022-09-15T13:06:10.347Z,81.94
2022-09-15T13:08:53.073Z,82.16
2022-09-15T13:11:25.862Z,82.58
2022-09-15T13:14:07.728Z,82.52
2022-09-15T13:16:46.108Z,81.61
2022-09-15T13:19:17.618Z,78.29
2022-09-15T13:21:54.522Z,75.40
2022-09-15T13:24:38.839Z,75.48
2022-09-15T13:27:08.246Z,75.71
2022-09-15T13:29:46.614Z,75.31
2022-09-15T13:32:24.255Z,75.47
2022-09-15T13:35:29.283Z,73.52
2022-09-15T13:38:44.330Z,72.63
2022-09-15T13:41:33.330Z,72.10
2022-09-15T13:44:23.299Z,70.76
2022-09-15T13:47:10.748Z,71.56
2022-09-15T13:49:49.779Z,72.54
2022-09-15T13:52:34.082Z,72.06
2022-09-15T13:55:19.440Z,72.85
2022-09-15T14:00:46.778Z,71.63
2022-09-15T14:03:20.071Z,71.92
2022-09-15T14:05:48.016Z,71.82
2022-09-15T14:08:19.598Z,72.72
2022-09-15T14:10:51.433Z,72.83
2022-09-15T14:13:22.430Z,73.69
2022-09-15T14:16:01.490Z,74.47
2022-09-15T14:18:31.339Z,73.65
2022-09-15T14:21:01.669Z,74.23
2022-09-15T14:23:30.213Z,74.08
2022-09-15T14:26:00.151Z,74.30
2022-09-15T14:28:35.606Z,73.75
2022-09-15T14:31:03.496Z,74.30
2022-09-15T14:33:37.927Z,74.87
2022-09-15T14:36:14.448Z,75.52
2022-09-15T14:38:42.157Z,75.94
2022-09-15T14:41:19.944Z,76.88
2022-09-15T14:43:47.597Z,81.03
2022-09-15T14:46:19.023Z,83.60
2022-09-15T14:48:48.247Z,87.47
2022-09-15T14:51:22.406Z,90.25
2022-09-15T14:53:52.162Z,90.68
2022-09-15T14:56:22.749Z,91.31
2022-09-15T14:58:53.761Z,93.00
2022-09-15T15:01:24.433Z,93.23
2022-09-15T15:04:02.570Z,94.14
2022-09-15T15:06:38.618Z,92.45
2022-09-15T15:09:11.213Z,92.77
2022-09-15T15:11:44.045Z,92.27
2022-09-15T15:14:14.369Z,91.49
2022-09-15T15:16:55.486Z,91.57
2022-09-15T15:19:39.460Z,92.49
2022-09-15T15:22:16.516Z,91.83
2022-09-15T15:24:47.663Z,91.44
2022-09-15T15:27:40.681Z,90.83
2022-09-15T15:30:33.775Z,91.09
2022-09-15T15:33:02.899Z,90.07
2022-09-15T15:35:33.586Z,90.28
2022-09-15T15:38:04.593Z,90.24
2022-09-15T15:40:37.970Z,89.71
2022-09-15T15:43:08.337Z,89.65
2022-09-15T15:45:48.397Z,89.71
2022-09-15T15:48:18.398Z,89.72
2022-09-15T15:50:47.830Z,90.22
2022-09-15T15:53:15.458Z,90.27
2022-09-15T15:55:44.557Z,89.82
2022-09-15T15:58:13.499Z,90.25
2022-09-15T16:00:45.154Z,90.08
2022-09-15T16:03:19.285Z,90.51
2022-09-15T16:05:51.249Z,90.14
2022-09-15T16:08:25.541Z,90.21
2022-09-15T16:10:56.248Z,89.09
2022-09-15T16:13:27.654Z,88.90
2022-09-15T16:15:56.978Z,88.61
2022-09-15T16:18:29.271Z,88.37
2022-09-15T16:20:58.360Z,88.32
2022-09-15T16:23:26.312Z,88.29
2022-09-15T16:25:56.626Z,88.37
2022-09-15T16:28:24.665Z,87.88
2022-09-15T16:30:52.351Z,87.50
2022-09-15T16:33:20.956Z,87.00
2022-09-15T16:35:51.315Z,88.01
2022-09-15T16:38:21.227Z,87.84
2022-09-15T16:40:49.499Z,87.60
2022-09-15T16:43:19.268Z,87.85
2022-09-15T16:45:46.918Z,88.15
2022-09-15T16:48:14.887Z,88.12
2022-09-15T16:50:56.012Z,88.52
2022-09-15T16:53:32.662Z,88.82
2022-09-15T16:56:00.495Z,88.91
2022-09-15T16:58:28.637Z,88.66
2022-09-15T17:00:56.723Z,89.47
2022-09-15T17:03:25.986Z,89.84
2022-09-15T17:05:54.981Z,89.55
2022-09-15T17:08:27.057Z,89.33
2022-09-15T17:10:57.662Z,89.62
2022-09-15T17:13:30.118Z,88.86
2022-09-15T17:15:58.881Z,88.66
2022-09-15T17:18:26.938Z,87.96
2022-09-15T17:20:54.836Z,87.25
2022-09-15T17:23:24.392Z,87.46
2022-09-15T17:25:53.303Z,87.41
2022-09-15T17:28:25.536Z,87.35
2022-09-15T17:30:58.262Z,87.54
2022-09-15T17:33:26.923Z,87.83
2022-09-15T17:35:54.899Z,88.19
2022-09-15T17:38:22.901Z,88.69
2022-09-15T17:40:51.689Z,89.36
2022-09-15T17:43:20.969Z,89.12
2022-09-15T17:45:51.759Z,89.94
2022-09-15T17:48:19.731Z,90.37
2022-09-15T17:50:48.878Z,91.24
2022-09-15T17:53:18.850Z,91.64
2022-09-15T17:55:46.461Z,91.74
2022-09-15T17:58:14.362Z,92.63
2022-09-15T18:00:48.036Z,93.11
2022-09-15T18:03:22.901Z,94.45
2022-09-15T18:05:51.470Z,94.91
2022-09-15T18:08:19.276Z,95.91
2022-09-15T18:10:47.414Z,96.54
2022-09-15T18:13:17.516Z,97.12
2022-09-15T18:15:48.968Z,98.13
2022-09-15T18:18:22.736Z,98.96
2022-09-15T18:20:51.522Z,99.83
2022-09-15T18:23:20.923Z,100.00
2022-09-15T18:25:49.129Z,100.00
2022-09-15T18:28:17.620Z,100.00
2022-09-15T18:30:47.508Z,100.00
2022-09-15T18:33:16.939Z,100.00
2022-09-15T18:35:46.412Z,100.00
2022-09-15T18:38:17.033Z,100.00
2022-09-15T18:40:46.670Z,100.00
2022-09-15T18:43:14.325Z,100.00
2022-09-15T18:45:42.586Z,100.00
2022-09-15T18:48:12.852Z,100.00
2022-09-15T18:50:41.573Z,100.00
2022-09-15T18:53:11.478Z,100.00
2022-09-15T18:55:41.750Z,100.00
2022-09-15T18:58:09.707Z,100.00
2022-09-15T19:00:37.789Z,100.00
2022-09-15T19:03:09.467Z,100.00
2022-09-15T19:05:37.615Z,100.00
2022-09-15T19:08:05.513Z,100.00
2022-09-15T19:10:34.718Z,100.00
2022-09-15T19:13:02.363Z,100.00
2022-09-15T19:15:33.710Z,100.00
2022-09-15T19:18:02.008Z,100.00
2022-09-15T19:20:30.016Z,100.00
2022-09-15T19:22:58.151Z,100.00
2022-09-15T19:25:25.882Z,100.00
2022-09-15T19:27:55.003Z,100.00
2022-09-15T19:30:22.587Z,100.00
2022-09-15T19:32:50.189Z,100.00
2022-09-15T19:35:17.953Z,100.00
2022-09-15T19:37:45.952Z,100.00
2022-09-15T19:40:15.833Z,100.00
2022-09-15T19:42:45.256Z,100.00
2022-09-15T19:45:14.812Z,100.00
2022-09-15T19:47:42.899Z,100.00
2022-09-15T19:50:12.741Z,100.00
2022-09-15T19:52:40.590Z,100.00
2022-09-15T19:55:09.649Z,100.00
2022-09-15T19:57:39.879Z,100.00
2022-09-15T20:00:09.438Z,100.00
2022-09-15T20:02:39.128Z,100.00
2022-09-15T20:05:07.894Z,100.00
2022-09-15T20:07:35.671Z,100.00
2022-09-15T20:10:03.382Z,100.00
2022-09-15T20:12:34.611Z,100.00
2022-09-15T20:15:02.156Z,100.00
2022-09-15T20:17:29.753Z,100.00
2022-09-15T20:19:59.409Z,100.00
2022-09-15T20:22:27.505Z,100.00
2022-09-15T20:24:56.094Z,100.00
2022-09-15T20:27:23.831Z,100.00
2022-09-15T20:29:51.597Z,99.42
2022-09-15T20:32:22.751Z,99.60
2022-09-15T20:34:52.967Z,99.12
2022-09-15T20:37:23.015Z,97.06
2022-09-15T20:39:51.831Z,97.75
2022-09-15T20:42:19.674Z,98.20
2022-09-15T20:44:47.207Z,97.81
2022-09-15T20:47:14.797Z,97.95
2022-09-15T20:49:42.530Z,97.95
2022-09-15T20:52:10.178Z,98.08
2022-09-15T20:54:39.089Z,97.98
2022-09-15T20:57:06.726Z,98.28
2022-09-15T20:59:34.321Z,98.15
2022-09-15T21:02:04.215Z,99.01
2022-09-15T21:04:32.643Z,99.53
2022-09-15T21:07:00.871Z,100.00
2022-09-15T21:09:28.498Z,100.00
2022-09-15T21:11:57.550Z,100.00
2022-09-15T21:14:25.118Z,100.00
2022-09-15T21:16:52.824Z,100.00
2022-09-15T21:19:20.525Z,100.00
2022-09-15T21:21:48.162Z,100.00
2022-09-15T21:24:15.844Z,100.00
2022-09-15T21:26:57.543Z,100.00
2022-09-15T21:29:27.571Z,100.00
2022-09-15T21:31:56.224Z,100.00
2022-09-15T21:34:25.199Z,100.00
2022-09-15T21:36:53.718Z,100.00
2022-09-15T21:39:21.321Z,100.00
2022-09-15T21:41:49.200Z,100.00
2022-09-15T21:44:17.177Z,100.00
2022-09-15T21:46:46.938Z,100.00
2022-09-15T21:49:14.891Z,100.00
2022-09-15T21:51:42.501Z,100.00
2022-09-15T21:54:10.320Z,100.00
2022-09-15T21:56:38.092Z,100.00
2022-09-15T21:59:05.941Z,100.00
2022-09-15T22:01:34.333Z,100.00
2022-09-15T22:04:05.883Z,100.00
2022-09-15T22:06:34.978Z,100.00
2022-09-15T22:09:05.109Z,100.00
2022-09-15T22:11:33.691Z,100.00
2022-09-15T22:14:02.892Z,100.00
2022-09-15T22:16:31.022Z,100.00
2022-09-15T22:18:58.906Z,100.00
2022-09-15T22:21:29.269Z,100.00
2022-09-15T22:23:58.972Z,100.00
2022-09-15T22:26:28.763Z,100.00
2022-09-15T22:28:56.906Z,100.00
2022-09-15T22:31:25.539Z,100.00
2022-09-15T22:33:53.647Z,100.00
2022-09-15T22:36:27.951Z,100.00
2022-09-15T22:39:03.518Z,100.00
2022-09-15T22:41:32.351Z,100.00
2022-09-15T22:43:59.953Z,100.00
2022-09-15T22:46:27.591Z,100.00
2022-09-15T22:48:55.285Z,100.00
2022-09-15T22:51:22.997Z,100.00
2022-09-15T22:53:53.952Z,100.00
2022-09-15T22:56:23.221Z,100.00
2022-09-15T22:58:50.967Z,100.00
2022-09-15T23:01:20.607Z,100.00
2022-09-15T23:03:50.881Z,100.00
2022-09-15T23:06:18.645Z,100.00
2022-09-15T23:08:50.936Z,100.00
2022-09-15T23:11:18.740Z,100.00
2022-09-15T23:13:47.904Z,100.00
2022-09-15T23:16:15.881Z,100.00
2022-09-15T23:18:43.835Z,100.00
2022-09-15T23:21:12.824Z,100.00
2022-09-15T23:23:43.099Z,100.00
2022-09-15T23:26:12.829Z,100.00
2022-09-15T23:28:40.706Z,100.00
2022-09-15T23:31:11.858Z,100.00
2022-09-15T23:33:40.202Z,100.00
2022-09-15T23:36:10.631Z,100.00
2022-09-15T23:38:39.544Z,100.00
2022-09-15T23:41:08.093Z,100.00
2022-09-15T23:43:36.249Z,100.00
2022-09-15T23:46:04.848Z,100.00
2022-09-15T23:48:33.795Z,100.00
2022-09-15T23:51:01.949Z,100.00
2022-09-15T23:53:29.991Z,100.00
2022-09-15T23:55:58.136Z,100.00
2022-09-15T23:58:29.179Z,100.00
